createdAt,value
2018-09-14T00:01:53.399Z,4.57
2018-09-14T00:04:21.581Z,5.40
2018-09-14T00:06:49.805Z,5.47
2018-09-14T00:09:17.987Z,7.30
2018-09-14T00:11:46.173Z,9.13
2018-09-14T00:14:14.400Z,10.03
2018-09-14T00:16:42.744Z,5.90
2018-09-14T00:19:10.908Z,6.27
2018-09-14T00:21:39.107Z,8.33
2018-09-14T00:24:07.271Z,6.43
2018-09-14T00:26:35.492Z,5.43
2018-09-14T00:29:03.671Z,5.60
2018-09-14T00:31:31.913Z,8.50
2018-09-14T00:34:00.115Z,5.70
2018-09-14T00:36:28.347Z,4.90
2018-09-14T00:38:56.532Z,6.53
2018-09-14T00:41:24.719Z,10.03
2018-09-14T00:43:52.935Z,4.73
2018-09-14T00:46:21.267Z,6.53
2018-09-14T00:48:49.494Z,4.93
2018-09-14T00:51:17.675Z,7.87
2018-09-14T00:53:45.842Z,5.57
2018-09-14T00:56:14.072Z,12.83
2018-09-14T00:58:42.892Z,6.50
2018-09-14T01:01:11.075Z,5.63
2018-09-14T01:03:39.260Z,6.33
2018-09-14T01:06:07.553Z,5.23
2018-09-14T01:08:35.764Z,5.43
2018-09-14T01:11:03.936Z,6.30
2018-09-14T01:13:32.106Z,8.67
2018-09-14T01:16:00.368Z,6.87
2018-09-14T01:18:28.532Z,6.70
2018-09-14T01:20:56.705Z,5.80
2018-09-14T01:23:24.944Z,4.97
2018-09-14T01:25:53.155Z,6.43
2018-09-14T01:28:21.524Z,7.40
2018-09-14T01:30:49.704Z,6.30
2018-09-14T01:33:17.901Z,6.37
2018-09-14T01:35:51.564Z,7.20
2018-09-14T01:38:19.747Z,6.87
2018-09-14T01:40:47.927Z,7.90
2018-09-14T01:43:16.092Z,7.17
2018-09-14T01:45:44.310Z,7.50
2018-09-14T01:48:12.487Z,8.30
2018-09-14T01:50:40.663Z,8.90
2018-09-14T01:53:08.851Z,7.50
2018-09-14T01:55:37.081Z,7.17
2018-09-14T01:58:05.263Z,9.07
2018-09-14T02:00:33.442Z,7.13
2018-09-14T02:03:01.673Z,8.07
2018-09-14T02:05:29.887Z,9.10
2018-09-14T02:07:58.055Z,10.50
2018-09-14T02:10:26.235Z,10.20
2018-09-14T02:12:54.407Z,10.30
2018-09-14T02:15:22.883Z,11.13
2018-09-14T02:17:51.035Z,9.53
2018-09-14T02:20:19.741Z,11.77
2018-09-14T02:22:48.512Z,16.33
2018-09-14T02:25:16.808Z,22.67
2018-09-14T02:27:45.015Z,11.20
2018-09-14T02:30:13.254Z,14.30
2018-09-14T02:32:41.433Z,17.37
2018-09-14T02:35:09.731Z,14.13
2018-09-14T02:37:37.908Z,11.87
2018-09-14T02:40:06.109Z,9.80
2018-09-14T02:42:34.298Z,14.07
2018-09-14T02:45:02.521Z,9.40
2018-09-14T02:47:30.757Z,9.90
2018-09-14T02:49:58.916Z,10.57
2018-09-14T02:52:27.127Z,13.70
2018-09-14T02:54:55.320Z,12.67
2018-09-14T02:57:23.731Z,10.67
2018-09-14T02:59:51.907Z,11.33
2018-09-14T03:02:20.091Z,11.33
2018-09-14T03:04:48.267Z,12.00
2018-09-14T03:07:16.504Z,13.00
2018-09-14T03:09:44.680Z,10.13
2018-09-14T03:12:12.860Z,10.37
2018-09-14T03:14:41.040Z,12.10
2018-09-14T03:17:09.318Z,10.93
2018-09-14T03:19:37.516Z,13.70
2018-09-14T03:22:05.723Z,12.23
2018-09-14T03:24:33.904Z,9.63
2018-09-14T03:27:02.228Z,10.47
2018-09-14T03:29:30.456Z,9.50
2018-09-14T03:31:58.721Z,11.83
2018-09-14T03:34:26.931Z,11.30
2018-09-14T03:36:55.197Z,11.50
2018-09-14T03:39:23.520Z,8.57
2018-09-14T03:41:51.720Z,9.33
2018-09-14T03:44:19.991Z,11.43
2018-09-14T03:46:48.264Z,10.60
2018-09-14T03:49:16.531Z,14.47
2018-09-14T03:51:44.728Z,12.87
2018-09-14T03:54:12.895Z,8.17
2018-09-14T03:56:41.171Z,11.03
2018-09-14T03:59:09.356Z,12.33
2018-09-14T04:01:37.551Z,10.17
2018-09-14T04:04:05.752Z,8.10
2018-09-14T04:06:33.966Z,8.27
2018-09-14T04:09:02.284Z,9.83
2018-09-14T04:11:30.470Z,10.73
2018-09-14T04:13:58.660Z,11.20
2018-09-14T04:16:26.851Z,9.23
2018-09-14T04:18:59.285Z,14.93
2018-09-14T04:21:27.638Z,12.70
2018-09-14T04:23:55.915Z,8.07
2018-09-14T04:26:24.232Z,9.37
2018-09-14T04:28:52.527Z,9.27
2018-09-14T04:31:20.719Z,13.07
2018-09-14T04:33:48.925Z,9.37
2018-09-14T04:36:17.340Z,10.50
2018-09-14T04:38:45.561Z,13.27
2018-09-14T04:41:13.752Z,11.53
2018-09-14T04:43:41.940Z,9.30
2018-09-14T04:46:10.172Z,12.10
2018-09-14T04:48:38.519Z,9.13
2018-09-14T04:51:06.806Z,9.83
2018-09-14T04:53:34.967Z,14.20
2018-09-14T04:56:03.220Z,11.13
2018-09-14T04:58:31.447Z,12.13
2018-09-14T05:00:59.661Z,15.97
2018-09-14T05:03:27.870Z,12.00
2018-09-14T05:05:56.104Z,14.83
2018-09-14T05:08:24.415Z,14.40
2018-09-14T05:10:52.623Z,13.60
2018-09-14T05:13:20.808Z,14.57
2018-09-14T05:15:49.088Z,12.97
2018-09-14T05:18:17.280Z,17.10
2018-09-14T05:20:45.529Z,15.00
2018-09-14T05:23:13.685Z,16.00
2018-09-14T05:25:42.003Z,13.93
2018-09-14T05:28:10.240Z,18.70
2018-09-14T05:30:38.430Z,19.13
2018-09-14T05:33:06.828Z,19.73
2018-09-14T05:35:35.073Z,15.63
2018-09-14T05:38:03.298Z,16.53
2018-09-14T05:40:31.516Z,14.87
2018-09-14T05:42:59.713Z,15.50
2018-09-14T05:45:27.988Z,15.77
2018-09-14T05:47:56.163Z,15.53
2018-09-14T05:50:24.383Z,17.43
2018-09-14T05:52:52.571Z,18.20
2018-09-14T05:55:20.778Z,18.93
2018-09-14T05:57:48.951Z,12.63
2018-09-14T06:00:17.152Z,13.47
2018-09-14T06:02:45.351Z,15.30
2018-09-14T06:05:13.661Z,14.10
2018-09-14T06:07:41.866Z,12.80
2018-09-14T06:10:10.084Z,13.03
2018-09-14T06:12:38.292Z,14.80
2018-09-14T06:15:06.561Z,17.90
2018-09-14T06:17:34.737Z,16.43
2018-09-14T06:20:02.920Z,15.80
2018-09-14T06:22:31.169Z,17.70
2018-09-14T06:24:59.280Z,15.30
2018-09-14T06:27:27.481Z,22.90
2018-09-14T06:29:55.676Z,14.07
2018-09-14T06:32:23.852Z,19.67
2018-09-14T06:34:52.052Z,20.87
2018-09-14T06:37:20.344Z,17.30
2018-09-14T06:39:48.530Z,23.50
2018-09-14T06:42:16.720Z,16.57
2018-09-14T06:44:44.902Z,17.80
2018-09-14T06:47:13.143Z,16.80
2018-09-14T06:49:41.357Z,19.50
2018-09-14T06:52:09.592Z,21.93
2018-09-14T06:54:37.768Z,14.80
2018-09-14T06:57:06.124Z,20.30
2018-09-14T06:59:34.307Z,14.40
2018-09-14T07:02:02.496Z,24.43
2018-09-14T07:04:30.688Z,16.43
2018-09-14T07:06:58.935Z,20.90
2018-09-14T07:09:27.147Z,19.70
2018-09-14T07:11:55.357Z,16.40
2018-09-14T07:14:23.720Z,15.57
2018-09-14T07:16:51.934Z,20.63
2018-09-14T07:19:20.180Z,14.13
2018-09-14T07:21:48.440Z,19.13
2018-09-14T07:24:16.678Z,16.00
2018-09-14T07:26:44.812Z,19.97
2018-09-14T07:29:13.116Z,17.53
2018-09-14T07:31:41.357Z,14.27
2018-09-14T07:34:09.634Z,19.63
2018-09-14T07:36:37.998Z,20.70
2018-09-14T07:39:08.309Z,21.50
2018-09-14T07:41:36.530Z,13.77
2018-09-14T07:44:04.939Z,25.30
2018-09-14T07:46:33.138Z,20.63
2018-09-14T07:49:01.399Z,17.20
2018-09-14T07:51:29.821Z,14.87
2018-09-14T07:53:58.002Z,19.87
2018-09-14T07:56:26.414Z,21.67
2018-09-14T07:58:55.284Z,18.20
2018-09-14T08:01:23.524Z,18.33
2018-09-14T08:03:51.911Z,20.77
2018-09-14T08:06:20.233Z,21.20
2018-09-14T08:08:48.508Z,17.63
2018-09-14T08:11:16.855Z,15.80
2018-09-14T08:13:45.056Z,13.90
2018-09-14T08:16:13.339Z,16.97
2018-09-14T08:18:41.608Z,15.37
2018-09-14T08:21:09.910Z,18.23
2018-09-14T08:23:38.146Z,12.27
2018-09-14T08:26:06.428Z,14.63
2018-09-14T08:28:34.612Z,12.40
2018-09-14T08:31:02.802Z,11.50
2018-09-14T08:33:31.039Z,13.10
2018-09-14T08:35:59.240Z,21.10
2018-09-14T08:38:27.455Z,12.43
2018-09-14T08:40:55.664Z,18.60
2018-09-14T08:43:23.897Z,15.33
2018-09-14T08:45:52.111Z,11.50
2018-09-14T08:48:20.287Z,14.83
2018-09-14T08:50:48.481Z,9.80
2018-09-14T08:53:16.649Z,11.07
2018-09-14T08:55:44.897Z,10.23
2018-09-14T08:58:13.179Z,10.37
2018-09-14T09:00:41.379Z,12.97
2018-09-14T09:03:09.515Z,13.97
2018-09-14T09:05:37.713Z,10.00
2018-09-14T09:08:05.948Z,11.93
2018-09-14T09:10:34.159Z,9.40
2018-09-14T09:13:02.381Z,16.03
2018-09-14T09:15:30.586Z,15.87
2018-09-14T09:17:58.768Z,10.43
2018-09-14T09:20:26.956Z,9.23
2018-09-14T09:22:55.141Z,7.30
2018-09-14T09:25:23.323Z,8.63
2018-09-14T09:27:51.516Z,14.73
2018-09-14T09:30:19.771Z,10.73
2018-09-14T09:32:47.976Z,11.20
2018-09-14T09:35:16.187Z,10.10
2018-09-14T09:37:44.360Z,10.20
2018-09-14T09:40:12.610Z,12.37
2018-09-14T09:42:40.787Z,12.57
2018-09-14T09:45:08.984Z,9.13
2018-09-14T09:47:37.157Z,12.40
2018-09-14T09:50:05.516Z,10.40
2018-09-14T09:52:33.708Z,8.07
2018-09-14T09:55:01.921Z,10.83
2018-09-14T09:57:30.116Z,10.03
2018-09-14T09:59:58.317Z,7.07
2018-09-14T10:02:31.770Z,8.30
2018-09-14T10:05:05.337Z,10.20
2018-09-14T10:07:33.528Z,5.47
2018-09-14T10:10:01.704Z,9.00
2018-09-14T10:12:29.940Z,8.53
2018-09-14T10:14:58.165Z,8.43
2018-09-14T10:17:26.351Z,5.07
2018-09-14T10:19:54.536Z,8.83
2018-09-14T10:22:22.751Z,10.50
2018-09-14T10:24:50.954Z,11.17
2018-09-14T10:27:19.189Z,7.20
2018-09-14T10:29:47.474Z,15.53
2018-09-14T10:32:15.668Z,7.90
2018-09-14T10:34:43.849Z,10.70
2018-09-14T10:37:12.032Z,10.63
2018-09-14T10:39:40.235Z,13.83
2018-09-14T10:42:08.404Z,6.20
2018-09-14T10:44:36.615Z,7.03
2018-09-14T10:47:04.944Z,7.73
2018-09-14T10:49:33.161Z,6.53
2018-09-14T10:52:01.325Z,5.27
2018-09-14T10:54:29.702Z,8.83
2018-09-14T10:56:57.871Z,7.07
2018-09-14T10:59:26.061Z,9.70
2018-09-14T11:01:54.249Z,5.47
2018-09-14T11:04:22.490Z,7.17
2018-09-14T11:06:50.643Z,10.30
2018-09-14T11:09:18.821Z,6.33
2018-09-14T11:11:47.025Z,5.97
2018-09-14T11:14:15.234Z,8.17
2018-09-14T11:16:43.403Z,10.40
2018-09-14T11:19:11.592Z,6.73
2018-09-14T11:21:39.789Z,8.67
2018-09-14T11:24:07.998Z,4.57
2018-09-14T11:26:36.176Z,11.23
2018-09-14T11:29:04.463Z,12.23
2018-09-14T11:31:32.622Z,8.40
2018-09-14T11:34:00.828Z,7.37
2018-09-14T11:36:28.996Z,7.07
2018-09-14T11:38:57.164Z,9.60
2018-09-14T11:41:25.368Z,7.77
2018-09-14T11:43:53.598Z,6.50
2018-09-14T11:46:21.868Z,9.87
2018-09-14T11:48:50.872Z,10.33
2018-09-14T11:51:19.052Z,7.83
2018-09-14T11:53:47.235Z,8.20
2018-09-14T11:56:15.424Z,8.77
2018-09-14T11:58:43.624Z,7.47
2018-09-14T12:01:11.805Z,11.03
2018-09-14T12:03:40.037Z,7.10
2018-09-14T12:06:08.235Z,7.30
2018-09-14T12:08:36.423Z,5.60
2018-09-14T12:11:04.654Z,4.73
2018-09-14T12:13:32.895Z,3.90
2018-09-14T12:16:01.106Z,4.20
2018-09-14T12:18:29.304Z,4.67
2018-09-14T12:20:57.511Z,4.07
2018-09-14T12:23:25.707Z,4.83
2018-09-14T12:25:53.936Z,5.83
2018-09-14T12:28:22.213Z,4.80
2018-09-14T12:30:50.324Z,3.70
2018-09-14T12:33:18.568Z,7.17
2018-09-14T12:35:46.834Z,6.33
2018-09-14T12:38:14.947Z,6.40
2018-09-14T12:40:43.128Z,3.43
2018-09-14T12:43:11.309Z,4.43
2018-09-14T12:45:39.493Z,5.47
2018-09-14T12:48:07.662Z,2.80
2018-09-14T12:50:35.848Z,4.83
2018-09-14T12:53:04.128Z,5.53
2018-09-14T12:55:32.332Z,9.23
2018-09-14T12:58:00.534Z,4.20
2018-09-14T13:00:28.754Z,4.00
2018-09-14T13:02:56.956Z,4.40
2018-09-14T13:05:25.129Z,4.30
2018-09-14T13:07:53.299Z,3.03
2018-09-14T13:10:21.492Z,4.83
2018-09-14T13:12:49.783Z,4.87
2018-09-14T13:15:17.995Z,4.20
2018-09-14T13:17:46.268Z,5.90
2018-09-14T13:20:14.478Z,2.43
2018-09-14T13:22:42.654Z,2.63
2018-09-14T13:25:10.879Z,5.63
2018-09-14T13:27:39.133Z,6.97
2018-09-14T13:30:07.620Z,5.40
2018-09-14T13:32:35.827Z,3.80
2018-09-14T13:35:04.090Z,2.20
2018-09-14T13:37:32.276Z,6.50
2018-09-14T13:40:00.480Z,6.40
2018-09-14T13:42:28.691Z,6.13
2018-09-14T13:44:56.868Z,6.53
2018-09-14T13:47:25.110Z,3.67
2018-09-14T13:49:53.281Z,2.90
2018-09-14T13:52:21.464Z,4.93
2018-09-14T13:54:49.675Z,2.90
2018-09-14T13:57:17.877Z,4.13
2018-09-14T13:59:46.056Z,6.13
2018-09-14T14:02:14.228Z,2.00
2018-09-14T14:04:42.409Z,2.77
2018-09-14T14:07:10.583Z,5.37
2018-09-14T14:09:38.772Z,3.47
2018-09-14T14:12:06.943Z,3.90
2018-09-14T14:14:35.174Z,5.40
2018-09-14T14:17:03.454Z,3.27
2018-09-14T14:19:31.552Z,5.90
2018-09-14T14:21:59.746Z,4.50
2018-09-14T14:24:27.932Z,8.97
2018-09-14T14:26:56.123Z,6.03
2018-09-14T14:29:24.342Z,5.97
2018-09-14T14:31:52.520Z,4.10
2018-09-14T14:34:20.707Z,1.90
2018-09-14T14:36:48.974Z,6.40
2018-09-14T14:39:17.149Z,2.83
2018-09-14T14:41:45.337Z,1.70
2018-09-14T14:44:13.514Z,2.90
2018-09-14T14:46:41.703Z,5.47
2018-09-14T14:49:10.222Z,1.40
2018-09-14T14:51:38.463Z,8.10
2018-09-14T14:54:06.675Z,6.47
2018-09-14T14:56:34.889Z,3.67
2018-09-14T14:59:03.088Z,2.00
2018-09-14T15:01:31.368Z,6.00
2018-09-14T15:03:59.582Z,3.00
2018-09-14T15:06:27.816Z,3.07
2018-09-14T15:08:56.003Z,3.00
2018-09-14T15:11:24.283Z,2.77
2018-09-14T15:13:52.456Z,1.60
2018-09-14T15:16:20.664Z,3.33
2018-09-14T15:18:48.846Z,2.67
2018-09-14T15:21:17.024Z,2.73
2018-09-14T15:23:45.196Z,3.83
2018-09-14T15:26:13.377Z,2.20
2018-09-14T15:28:41.575Z,5.40
2018-09-14T15:31:09.759Z,1.87
2018-09-14T15:33:38.003Z,2.60
2018-09-14T15:36:06.427Z,2.50
2018-09-14T15:38:34.711Z,1.63
2018-09-14T15:41:02.889Z,1.80
2018-09-14T15:43:31.091Z,2.30
2018-09-14T15:45:59.275Z,3.73
2018-09-14T15:48:27.463Z,3.20
2018-09-14T15:50:55.645Z,1.47
2018-09-14T15:53:23.839Z,2.60
2018-09-14T15:55:52.029Z,2.00
2018-09-14T15:58:20.216Z,2.00
2018-09-14T16:00:48.420Z,1.73
2018-09-14T16:03:16.597Z,6.03
2018-09-14T16:05:44.775Z,2.60
2018-09-14T16:08:12.965Z,2.63
2018-09-14T16:10:41.161Z,1.87
2018-09-14T16:13:09.353Z,1.90
2018-09-14T16:15:37.563Z,2.87
2018-09-14T16:18:05.763Z,1.90
2018-09-14T16:20:33.956Z,2.70
2018-09-14T16:23:02.152Z,5.37
2018-09-14T16:25:30.340Z,1.50
2018-09-14T16:27:58.542Z,1.77
2018-09-14T16:30:26.737Z,4.37
2018-09-14T16:32:54.952Z,3.53
2018-09-14T16:35:23.284Z,2.60
2018-09-14T16:37:51.481Z,2.90
2018-09-14T16:40:20.573Z,3.87
2018-09-14T16:42:48.780Z,3.60
2018-09-14T16:45:16.953Z,11.90
2018-09-14T16:47:45.135Z,2.77
2018-09-14T16:50:13.360Z,3.40
2018-09-14T16:52:41.551Z,2.13
2018-09-14T16:55:09.736Z,1.40
2018-09-14T16:57:37.920Z,5.13
2018-09-14T17:00:06.812Z,3.33
2018-09-14T17:02:35.058Z,4.57
2018-09-14T17:05:03.191Z,2.37
2018-09-14T17:07:31.366Z,1.50
2018-09-14T17:09:59.537Z,3.73
2018-09-14T17:12:27.723Z,1.43
2018-09-14T17:15:02.436Z,3.70
2018-09-14T17:17:30.624Z,1.30
2018-09-14T17:20:05.636Z,2.40
2018-09-14T17:22:33.821Z,1.73
2018-09-14T17:25:02.083Z,3.00
2018-09-14T17:27:30.409Z,1.83
2018-09-14T17:29:58.560Z,1.90
2018-09-14T17:32:26.754Z,1.33
2018-09-14T17:34:54.965Z,2.10
2018-09-14T17:37:23.259Z,1.93
2018-09-14T17:39:51.451Z,1.40
2018-09-14T17:42:19.635Z,2.25
2018-09-14T17:44:47.844Z,4.67
2018-09-14T17:47:16.029Z,1.30
2018-09-14T17:49:44.211Z,1.40
2018-09-14T17:52:12.384Z,1.40
2018-09-14T17:54:40.559Z,2.40
2018-09-14T17:57:08.860Z,2.50
2018-09-14T17:59:37.051Z,2.00
2018-09-14T18:02:05.268Z,0.90
2018-09-14T18:04:33.451Z,1.90
2018-09-14T18:07:01.631Z,1.33
2018-09-14T18:09:29.821Z,1.60
2018-09-14T18:11:58.051Z,1.70
2018-09-14T18:14:26.212Z,2.40
2018-09-14T18:16:54.491Z,3.03
2018-09-14T18:19:22.679Z,1.73
2018-09-14T18:21:51.268Z,3.13
2018-09-14T18:24:19.810Z,1.60
2018-09-14T18:26:48.003Z,2.40
2018-09-14T18:29:16.265Z,2.03
2018-09-14T18:31:44.448Z,5.83
2018-09-14T18:34:12.628Z,2.40
2018-09-14T18:36:40.805Z,1.53
2018-09-14T18:39:10.668Z,5.17
2018-09-14T18:41:39.130Z,1.30
2018-09-14T18:44:07.360Z,2.10
2018-09-14T18:46:35.661Z,3.83
2018-09-14T18:49:03.832Z,1.60
2018-09-14T18:51:32.003Z,1.60
2018-09-14T18:54:00.187Z,5.83
2018-09-14T18:56:28.371Z,1.70
2018-09-14T18:58:56.567Z,1.80
2018-09-14T19:01:24.828Z,1.50
2018-09-14T19:03:53.037Z,1.37
2018-09-14T19:06:21.297Z,3.70
2018-09-14T19:08:49.585Z,1.10
2018-09-14T19:11:17.784Z,1.00
2018-09-14T19:13:45.940Z,1.70
2018-09-14T19:16:14.153Z,1.63
2018-09-14T19:18:42.360Z,2.20
2018-09-14T19:21:13.310Z,2.40
2018-09-14T19:23:41.504Z,1.50
2018-09-14T19:26:09.700Z,1.80
2018-09-14T19:28:37.860Z,1.80
2018-09-14T19:31:06.563Z,1.57
2018-09-14T19:33:34.763Z,3.47
2018-09-14T19:36:02.950Z,3.67
2018-09-14T19:38:31.164Z,3.27
2018-09-14T19:40:59.332Z,1.10
2018-09-14T19:43:27.549Z,3.03
2018-09-14T19:45:55.744Z,1.57
2018-09-14T19:48:23.907Z,1.07
2018-09-14T19:50:52.191Z,1.30
2018-09-14T19:53:20.368Z,3.10
2018-09-14T19:55:48.571Z,1.93
2018-09-14T19:58:16.768Z,4.13
2018-09-14T20:00:45.091Z,2.87
2018-09-14T20:03:13.287Z,3.47
2018-09-14T20:05:41.500Z,3.03
2018-09-14T20:08:09.683Z,2.73
2018-09-14T20:10:37.887Z,2.10
2018-09-14T20:13:06.108Z,1.10
2018-09-14T20:15:34.332Z,2.60
2018-09-14T20:18:02.511Z,4.40
2018-09-14T20:20:30.704Z,2.00
2018-09-14T20:22:58.881Z,2.10
2018-09-14T20:25:27.110Z,1.73
2018-09-14T20:27:55.431Z,3.43
2018-09-14T20:30:23.728Z,1.57
2018-09-14T20:32:51.869Z,1.30
2018-09-14T20:35:20.168Z,1.67
2018-09-14T20:37:48.340Z,6.60
2018-09-14T20:40:16.527Z,2.27
2018-09-14T20:42:44.712Z,7.83
2018-09-14T20:45:12.904Z,4.83
2018-09-14T20:47:41.091Z,2.30
2018-09-14T20:50:09.364Z,3.90
2018-09-14T20:52:37.560Z,2.87
2018-09-14T20:55:05.761Z,3.60
2018-09-14T20:57:33.931Z,2.17
2018-09-14T21:00:02.117Z,2.00
2018-09-14T21:02:30.279Z,1.37
2018-09-14T21:04:58.452Z,1.90
2018-09-14T21:07:26.648Z,2.10
2018-09-14T21:09:54.823Z,4.93
2018-09-14T21:12:23.045Z,1.33
2018-09-14T21:14:51.230Z,3.67
2018-09-14T21:17:19.440Z,2.70
2018-09-14T21:19:47.660Z,3.37
2018-09-14T21:22:15.869Z,2.17
2018-09-14T21:24:44.043Z,3.47
2018-09-14T21:27:12.227Z,5.20
2018-09-14T21:29:40.413Z,4.73
2018-09-14T21:32:08.600Z,4.07
2018-09-14T21:34:36.767Z,2.03
2018-09-14T21:37:05.168Z,4.97
2018-09-14T21:39:33.339Z,3.37
2018-09-14T21:42:01.524Z,4.50
2018-09-14T21:44:29.706Z,2.70
2018-09-14T21:46:57.891Z,1.83
2018-09-14T21:49:26.084Z,3.93
2018-09-14T21:51:54.287Z,1.93
2018-09-14T21:54:22.447Z,3.03
2018-09-14T21:56:50.627Z,1.73
2018-09-14T21:59:18.881Z,3.00
2018-09-14T22:01:47.080Z,1.93
2018-09-14T22:04:15.280Z,2.50
2018-09-14T22:06:43.523Z,2.50
2018-09-14T22:09:11.715Z,2.10
2018-09-14T22:11:39.932Z,2.70
2018-09-14T22:14:08.108Z,3.97
2018-09-14T22:16:36.283Z,7.23
2018-09-14T22:19:04.477Z,3.70
2018-09-14T22:21:32.753Z,4.07
2018-09-14T22:24:00.877Z,7.13
2018-09-14T22:26:29.075Z,3.10
2018-09-14T22:28:57.268Z,5.70
2018-09-14T22:31:25.528Z,4.10
2018-09-14T22:33:53.714Z,2.93
2018-09-14T22:36:22.014Z,1.67
2018-09-14T22:38:50.234Z,2.97
2018-09-14T22:41:18.407Z,2.33
2018-09-14T22:43:46.702Z,3.30
2018-09-14T22:46:14.959Z,3.30
2018-09-14T22:48:43.145Z,5.50
2018-09-14T22:51:11.344Z,4.67
2018-09-14T22:53:39.539Z,4.20
2018-09-14T22:56:07.735Z,4.10
2018-09-14T22:58:35.916Z,7.93
2018-09-14T23:01:09.370Z,4.10
2018-09-14T23:03:37.552Z,2.53
2018-09-14T23:06:05.759Z,5.33
2018-09-14T23:08:33.931Z,6.80
2018-09-14T23:11:02.218Z,3.60
2018-09-14T23:13:30.444Z,4.63
2018-09-14T23:15:59.630Z,9.00
2018-09-14T23:18:28.519Z,4.30
2018-09-14T23:20:56.738Z,3.00
2018-09-14T23:23:25.058Z,2.87
2018-09-14T23:25:54.845Z,4.13
2018-09-14T23:28:23.056Z,3.10
2018-09-14T23:30:51.335Z,2.73
2018-09-14T23:33:19.511Z,4.77
2018-09-14T23:35:47.706Z,5.63
2018-09-14T23:38:15.981Z,4.83
2018-09-14T23:40:44.195Z,3.53
2018-09-14T23:43:12.403Z,3.73
2018-09-14T23:45:40.599Z,2.20
2018-09-14T23:48:08.863Z,2.77
2018-09-14T23:50:37.067Z,2.00
2018-09-14T23:53:05.327Z,10.23
2018-09-14T23:55:33.509Z,2.80
2018-09-14T23:58:01.715Z,4.30
